sensor_id;sensor_type;location;lat;lon;timestamp;pressure;altitude;pressure_sealevel;temperature;humidity
15678;BME280;7939;50.814;6.368;2023-05-18T00:00:46;100934.50;;;15.50;48.91
15678;BME280;7939;50.814;6.368;2023-05-18T00:03:13;100936.22;;;15.49;48.86
15678;BME280;7939;50.814;6.368;2023-05-18T00:05:40;100935.34;;;15.49;48.57
15678;BME280;7939;50.814;6.368;2023-05-18T00:08:07;100925.06;;;15.47;48.96
15678;BME280;7939;50.814;6.368;2023-05-18T00:10:35;100932.78;;;15.44;48.49
15678;BME280;7939;50.814;6.368;2023-05-18T00:13:01;100931.06;;;15.45;48.63
15678;BME280;7939;50.814;6.368;2023-05-18T00:15:29;100923.34;;;15.43;48.95
15678;BME280;7939;50.814;6.368;2023-05-18T00:17:56;100935.38;;;15.41;49.10
15678;BME280;7939;50.814;6.368;2023-05-18T00:20:22;100936.25;;;15.40;48.82
15678;BME280;7939;50.814;6.368;2023-05-18T00:22:51;100939.66;;;15.37;49.15
15678;BME280;7939;50.814;6.368;2023-05-18T00:25:17;100937.97;;;15.35;48.92
15678;BME280;7939;50.814;6.368;2023-05-18T00:27:45;100938.81;;;15.35;49.16
15678;BME280;7939;50.814;6.368;2023-05-18T00:30:14;100939.66;;;15.33;48.71
15678;BME280;7939;50.814;6.368;2023-05-18T00:32:40;100935.38;;;15.30;49.32
15678;BME280;7939;50.814;6.368;2023-05-18T00:35:07;100939.69;;;15.28;49.10
15678;BME280;7939;50.814;6.368;2023-05-18T00:37:34;100941.41;;;15.28;48.91
15678;BME280;7939;50.814;6.368;2023-05-18T00:40:01;100932.78;;;15.26;49.24
15678;BME280;7939;50.814;6.368;2023-05-18T00:42:30;100931.94;;;15.25;49.25
15678;BME280;7939;50.814;6.368;2023-05-18T00:44:58;100931.94;;;15.24;49.09
15678;BME280;7939;50.814;6.368;2023-05-18T00:47:25;100930.25;;;15.23;48.68
15678;BME280;7939;50.814;6.368;2023-05-18T00:49:51;100924.22;;;15.21;48.80
15678;BME280;7939;50.814;6.368;2023-05-18T00:52:19;100929.38;;;15.19;49.20
15678;BME280;7939;50.814;6.368;2023-05-18T00:54:46;100925.09;;;15.18;49.02
15678;BME280;7939;50.814;6.368;2023-05-18T00:57:12;100925.94;;;15.17;49.14
15678;BME280;7939;50.814;6.368;2023-05-18T00:59:39;100934.53;;;15.16;48.93
15678;BME280;7939;50.814;6.368;2023-05-18T01:02:07;100931.06;;;15.14;49.10
15678;BME280;7939;50.814;6.368;2023-05-18T01:04:36;100931.09;;;15.13;48.98
15678;BME280;7939;50.814;6.368;2023-05-18T01:07:05;100924.25;;;15.08;49.18
15678;BME280;7939;50.814;6.368;2023-05-18T01:09:32;100933.66;;;15.08;48.77
15678;BME280;7939;50.814;6.368;2023-05-18T01:12:06;100932.78;;;15.07;49.46
15678;BME280;7939;50.814;6.368;2023-05-18T01:14:40;100925.94;;;15.05;49.09
15678;BME280;7939;50.814;6.368;2023-05-18T01:17:22;100922.53;;;15.03;49.60
15678;BME280;7939;50.814;6.368;2023-05-18T01:20:11;100925.09;;;15.03;49.48
15678;BME280;7939;50.814;6.368;2023-05-18T01:22:48;100936.22;;;15.00;49.02
15678;BME280;7939;50.814;6.368;2023-05-18T01:25:21;100916.50;;;14.98;49.35
15678;BME280;7939;50.814;6.368;2023-05-18T01:27:52;100924.25;;;14.96;48.77
15678;BME280;7939;50.814;6.368;2023-05-18T01:30:21;100925.06;;;14.94;49.00
15678;BME280;7939;50.814;6.368;2023-05-18T01:32:48;100920.78;;;14.94;49.01
15678;BME280;7939;50.814;6.368;2023-05-18T01:35:14;100924.22;;;14.92;48.96
15678;BME280;7939;50.814;6.368;2023-05-18T01:37:41;100925.94;;;14.91;49.34
15678;BME280;7939;50.814;6.368;2023-05-18T01:40:08;100925.97;;;14.90;49.09
15678;BME280;7939;50.814;6.368;2023-05-18T01:42:40;100927.66;;;14.88;49.19
15678;BME280;7939;50.814;6.368;2023-05-18T01:45:14;100920.78;;;14.88;49.33
15678;BME280;7939;50.814;6.368;2023-05-18T01:47:44;100922.50;;;14.86;49.18
15678;BME280;7939;50.814;6.368;2023-05-18T01:50:14;100919.09;;;14.84;49.32
15678;BME280;7939;50.814;6.368;2023-05-18T01:52:45;100923.34;;;14.82;49.11
15678;BME280;7939;50.814;6.368;2023-05-18T01:55:14;100925.06;;;14.81;48.73
15678;BME280;7939;50.814;6.368;2023-05-18T01:57:44;100923.34;;;14.79;49.24
15678;BME280;7939;50.814;6.368;2023-05-18T02:00:14;100925.06;;;14.75;49.18
15678;BME280;7939;50.814;6.368;2023-05-18T02:02:42;100914.75;;;14.75;49.16
15678;BME280;7939;50.814;6.368;2023-05-18T02:05:09;100923.34;;;14.73;48.88
15678;BME280;7939;50.814;6.368;2023-05-18T02:07:36;100915.63;;;14.73;49.40
15678;BME280;7939;50.814;6.368;2023-05-18T02:10:04;100922.50;;;14.71;49.38
15678;BME280;7939;50.814;6.368;2023-05-18T02:12:30;100919.03;;;14.69;49.28
15678;BME280;7939;50.814;6.368;2023-05-18T02:14:58;100922.47;;;14.68;49.78
15678;BME280;7939;50.814;6.368;2023-05-18T02:17:31;100923.34;;;14.67;49.03
15678;BME280;7939;50.814;6.368;2023-05-18T02:19:57;100920.75;;;14.64;49.00
15678;BME280;7939;50.814;6.368;2023-05-18T02:22:24;100918.19;;;14.62;49.20
15678;BME280;7939;50.814;6.368;2023-05-18T02:24:50;100927.59;;;14.63;48.85
15678;BME280;7939;50.814;6.368;2023-05-18T02:27:18;100935.34;;;14.60;49.63
15678;BME280;7939;50.814;6.368;2023-05-18T02:29:45;100924.19;;;14.60;49.78
15678;BME280;7939;50.814;6.368;2023-05-18T02:32:11;100931.91;;;14.60;49.20
15678;BME280;7939;50.814;6.368;2023-05-18T02:34:39;100928.47;;;14.56;49.59
15678;BME280;7939;50.814;6.368;2023-05-18T02:37:07;100930.16;;;14.55;49.08
15678;BME280;7939;50.814;6.368;2023-05-18T02:39:34;100927.63;;;14.52;49.12
15678;BME280;7939;50.814;6.368;2023-05-18T02:42:01;100925.91;;;14.53;49.50
15678;BME280;7939;50.814;6.368;2023-05-18T02:44:27;100924.16;;;14.49;49.48
15678;BME280;7939;50.814;6.368;2023-05-18T02:46:54;100931.88;;;14.49;49.82
15678;BME280;7939;50.814;6.368;2023-05-18T02:49:21;100934.44;;;14.47;49.71
15678;BME280;7939;50.814;6.368;2023-05-18T02:51:49;100928.38;;;14.45;49.69
15678;BME280;7939;50.814;6.368;2023-05-18T02:54:16;100928.41;;;14.44;49.29
15678;BME280;7939;50.814;6.368;2023-05-18T02:56:43;100936.97;;;14.43;49.25
15678;BME280;7939;50.814;6.368;2023-05-18T02:59:09;100935.25;;;14.42;48.93
15678;BME280;7939;50.814;6.368;2023-05-18T03:01:36;100932.66;;;14.39;49.80
15678;BME280;7939;50.814;6.368;2023-05-18T03:04:05;100931.81;;;14.35;48.94
15678;BME280;7939;50.814;6.368;2023-05-18T03:06:32;100929.25;;;14.35;48.90
15678;BME280;7939;50.814;6.368;2023-05-18T03:09:01;100935.22;;;14.31;49.58
15678;BME280;7939;50.814;6.368;2023-05-18T03:11:28;100937.78;;;14.32;49.85
15678;BME280;7939;50.814;6.368;2023-05-18T03:13:54;100937.78;;;14.29;49.29
15678;BME280;7939;50.814;6.368;2023-05-18T03:16:21;100936.06;;;14.28;49.76
15678;BME280;7939;50.814;6.368;2023-05-18T03:18:52;100933.50;;;14.28;49.75
15678;BME280;7939;50.814;6.368;2023-05-18T03:21:18;100932.63;;;14.26;49.25
15678;BME280;7939;50.814;6.368;2023-05-18T03:23:46;100933.47;;;14.25;49.83
15678;BME280;7939;50.814;6.368;2023-05-18T03:26:14;100936.06;;;14.22;49.41
15678;BME280;7939;50.814;6.368;2023-05-18T03:28:41;100934.34;;;14.21;49.98
15678;BME280;7939;50.814;6.368;2023-05-18T03:31:07;100930.91;;;14.21;49.62
15678;BME280;7939;50.814;6.368;2023-05-18T03:33:34;100937.75;;;14.19;49.67
15678;BME280;7939;50.814;6.368;2023-05-18T03:36:02;100936.03;;;14.16;49.29
15678;BME280;7939;50.814;6.368;2023-05-18T03:38:29;100938.59;;;14.16;49.40
15678;BME280;7939;50.814;6.368;2023-05-18T03:40:56;100935.16;;;14.13;50.05
15678;BME280;7939;50.814;6.368;2023-05-18T03:43:24;100936.00;;;14.13;49.04
15678;BME280;7939;50.814;6.368;2023-05-18T03:45:53;100933.44;;;14.12;49.71
15678;BME280;7939;50.814;6.368;2023-05-18T03:48:21;100942.84;;;14.11;49.37
15678;BME280;7939;50.814;6.368;2023-05-18T03:50:47;100943.72;;;14.09;49.72
15678;BME280;7939;50.814;6.368;2023-05-18T03:53:14;100948.00;;;14.08;49.44
15678;BME280;7939;50.814;6.368;2023-05-18T03:55:43;100945.41;;;14.05;49.60
15678;BME280;7939;50.814;6.368;2023-05-18T03:58:10;100941.97;;;14.04;49.92
15678;BME280;7939;50.814;6.368;2023-05-18T04:00:38;100941.13;;;14.02;49.07
15678;BME280;7939;50.814;6.368;2023-05-18T04:03:04;100940.25;;;14.02;50.08
15678;BME280;7939;50.814;6.368;2023-05-18T04:05:31;100936.81;;;13.98;49.79
15678;BME280;7939;50.814;6.368;2023-05-18T04:07:58;100936.81;;;13.97;50.16
15678;BME280;7939;50.814;6.368;2023-05-18T04:10:24;100935.94;;;13.98;49.26
15678;BME280;7939;50.814;6.368;2023-05-18T04:12:51;100943.63;;;13.95;49.44
15678;BME280;7939;50.814;6.368;2023-05-18T04:15:17;100941.91;;;13.94;49.46
15678;BME280;7939;50.814;6.368;2023-05-18T04:17:45;100935.06;;;13.93;49.19
15678;BME280;7939;50.814;6.368;2023-05-18T04:20:13;100945.34;;;13.93;48.90
15678;BME280;7939;50.814;6.368;2023-05-18T04:22:40;100943.63;;;13.92;49.82
15678;BME280;7939;50.814;6.368;2023-05-18T04:25:11;100939.34;;;13.91;49.65
15678;BME280;7939;50.814;6.368;2023-05-18T04:27:39;100949.63;;;13.91;49.61
15678;BME280;7939;50.814;6.368;2023-05-18T04:30:08;100941.91;;;13.89;49.92
15678;BME280;7939;50.814;6.368;2023-05-18T04:32:36;100943.59;;;13.89;50.35
15678;BME280;7939;50.814;6.368;2023-05-18T04:35:05;100953.88;;;13.89;49.70
15678;BME280;7939;50.814;6.368;2023-05-18T04:37:32;100953.88;;;13.87;49.40
15678;BME280;7939;50.814;6.368;2023-05-18T04:39:58;100957.31;;;13.88;49.79
15678;BME280;7939;50.814;6.368;2023-05-18T04:42:26;100959.88;;;13.88;50.00
15678;BME280;7939;50.814;6.368;2023-05-18T04:44:53;100965.91;;;13.90;49.52
15678;BME280;7939;50.814;6.368;2023-05-18T04:47:20;100966.72;;;13.89;50.18
15678;BME280;7939;50.814;6.368;2023-05-18T04:49:48;100964.16;;;13.89;49.98
15678;BME280;7939;50.814;6.368;2023-05-18T04:52:18;100971.03;;;13.90;49.67
15678;BME280;7939;50.814;6.368;2023-05-18T04:54:44;100965.03;;;13.89;50.06
15678;BME280;7939;50.814;6.368;2023-05-18T04:57:11;100968.44;;;13.88;50.18
15678;BME280;7939;50.814;6.368;2023-05-18T04:59:38;100973.59;;;13.90;49.03
15678;BME280;7939;50.814;6.368;2023-05-18T05:02:06;100969.28;;;13.89;49.88
15678;BME280;7939;50.814;6.368;2023-05-18T05:04:33;100965.88;;;13.88;49.70
15678;BME280;7939;50.814;6.368;2023-05-18T05:06:59;100972.75;;;13.89;50.16
15678;BME280;7939;50.814;6.368;2023-05-18T05:09:27;100977.03;;;13.90;50.25
15678;BME280;7939;50.814;6.368;2023-05-18T05:11:54;100971.84;;;13.89;50.03
15678;BME280;7939;50.814;6.368;2023-05-18T05:14:21;100968.44;;;13.88;50.18
15678;BME280;7939;50.814;6.368;2023-05-18T05:16:48;100965.03;;;13.89;50.39
15678;BME280;7939;50.814;6.368;2023-05-18T05:19:14;100965.91;;;13.90;49.76
15678;BME280;7939;50.814;6.368;2023-05-18T05:21:41;100966.75;;;13.90;50.16
15678;BME280;7939;50.814;6.368;2023-05-18T05:24:07;100968.47;;;13.90;49.87
15678;BME280;7939;50.814;6.368;2023-05-18T05:26:35;100971.03;;;13.90;50.31
15678;BME280;7939;50.814;6.368;2023-05-18T05:29:02;100971.03;;;13.91;49.84
15678;BME280;7939;50.814;6.368;2023-05-18T05:31:28;100962.47;;;13.91;50.29
15678;BME280;7939;50.814;6.368;2023-05-18T05:33:55;100970.19;;;13.91;49.39
15678;BME280;7939;50.814;6.368;2023-05-18T05:36:21;100966.75;;;13.90;50.13
15678;BME280;7939;50.814;6.368;2023-05-18T05:38:48;100977.03;;;13.92;50.09
15678;BME280;7939;50.814;6.368;2023-05-18T05:41:15;100977.88;;;13.92;50.51
15678;BME280;7939;50.814;6.368;2023-05-18T05:43:43;100970.19;;;13.91;49.56
15678;BME280;7939;50.814;6.368;2023-05-18T05:46:10;100981.31;;;13.90;49.68
15678;BME280;7939;50.814;6.368;2023-05-18T05:48:36;100975.31;;;13.91;50.04
15678;BME280;7939;50.814;6.368;2023-05-18T05:51:03;100976.19;;;13.91;50.03
15678;BME280;7939;50.814;6.368;2023-05-18T05:53:29;100979.59;;;13.92;50.68
15678;BME280;7939;50.814;6.368;2023-05-18T05:55:56;100969.31;;;13.92;50.67
15678;BME280;7939;50.814;6.368;2023-05-18T05:58:22;100980.47;;;13.92;50.21
15678;BME280;7939;50.814;6.368;2023-05-18T06:00:50;100981.31;;;13.90;49.63
15678;BME280;7939;50.814;6.368;2023-05-18T06:03:17;100986.47;;;13.90;50.62
15678;BME280;7939;50.814;6.368;2023-05-18T06:05:44;100982.13;;;13.86;50.31
15678;BME280;7939;50.814;6.368;2023-05-18T06:08:10;100983.84;;;13.87;50.43
15678;BME280;7939;50.814;6.368;2023-05-18T06:10:37;100979.56;;;13.89;49.36
15678;BME280;7939;50.814;6.368;2023-05-18T06:13:05;100983.00;;;13.88;49.64
15678;BME280;7939;50.814;6.368;2023-05-18T06:15:32;100980.44;;;13.86;50.53
15678;BME280;7939;50.814;6.368;2023-05-18T06:18:00;100985.56;;;13.88;49.79
15678;BME280;7939;50.814;6.368;2023-05-18T06:20:26;100984.72;;;13.87;50.45
15678;BME280;7939;50.814;6.368;2023-05-18T06:22:53;100983.00;;;13.88;50.50
15678;BME280;7939;50.814;6.368;2023-05-18T06:25:20;100989.84;;;13.86;50.12
15678;BME280;7939;50.814;6.368;2023-05-18T06:27:46;100992.41;;;13.87;50.59
15678;BME280;7939;50.814;6.368;2023-05-18T06:30:14;100989.00;;;13.88;49.77
15678;BME280;7939;50.814;6.368;2023-05-18T06:32:41;100988.13;;;13.88;49.49
15678;BME280;7939;50.814;6.368;2023-05-18T06:35:09;100995.03;;;13.90;50.29
15678;BME280;7939;50.814;6.368;2023-05-18T06:37:37;100999.31;;;13.90;50.30
15678;BME280;7939;50.814;6.368;2023-05-18T06:40:05;101001.03;;;13.92;50.74
15678;BME280;7939;50.814;6.368;2023-05-18T06:42:32;100991.59;;;13.93;50.41
15678;BME280;7939;50.814;6.368;2023-05-18T06:44:59;101004.44;;;13.94;50.99
15678;BME280;7939;50.814;6.368;2023-05-18T06:47:26;100995.06;;;13.96;50.40
15678;BME280;7939;50.814;6.368;2023-05-18T06:49:52;101001.91;;;13.97;49.99
15678;BME280;7939;50.814;6.368;2023-05-18T06:52:21;100999.34;;;13.99;50.86
15678;BME280;7939;50.814;6.368;2023-05-18T06:54:48;101002.78;;;13.99;51.03
15678;BME280;7939;50.814;6.368;2023-05-18T06:57:16;101007.91;;;14.01;50.00
15678;BME280;7939;50.814;6.368;2023-05-18T06:59:42;101003.63;;;14.00;50.90
15678;BME280;7939;50.814;6.368;2023-05-18T07:02:09;101005.34;;;13.99;50.68
15678;BME280;7939;50.814;6.368;2023-05-18T07:04:36;101000.19;;;13.99;50.47
15678;BME280;7939;50.814;6.368;2023-05-18T07:07:03;101002.78;;;14.01;50.32
15678;BME280;7939;50.814;6.368;2023-05-18T07:09:30;101002.78;;;14.01;50.80
15678;BME280;7939;50.814;6.368;2023-05-18T07:11:57;101005.34;;;13.98;50.25
15678;BME280;7939;50.814;6.368;2023-05-18T07:14:23;101004.47;;;13.97;51.36
15678;BME280;7939;50.814;6.368;2023-05-18T07:16:50;101001.91;;;13.99;51.41
15678;BME280;7939;50.814;6.368;2023-05-18T07:19:17;101008.81;;;14.03;50.94
15678;BME280;7939;50.814;6.368;2023-05-18T07:21:43;101017.63;;;14.54;55.71
15678;BME280;7939;50.814;6.368;2023-05-18T07:24:10;101012.63;;;15.17;55.14
15678;BME280;7939;50.814;6.368;2023-05-18T07:26:38;101011.78;;;15.34;53.42
15678;BME280;7939;50.814;6.368;2023-05-18T07:29:05;101011.78;;;15.08;50.87
15678;BME280;7939;50.814;6.368;2023-05-18T07:31:31;101010.03;;;14.92;50.29
15678;BME280;7939;50.814;6.368;2023-05-18T07:33:58;101009.13;;;14.81;50.86
15678;BME280;7939;50.814;6.368;2023-05-18T07:36:25;101004.84;;;14.74;50.39
15678;BME280;7939;50.814;6.368;2023-05-18T07:38:52;101008.25;;;14.73;50.82
15678;BME280;7939;50.814;6.368;2023-05-18T07:41:21;101006.53;;;14.69;50.06
15678;BME280;7939;50.814;6.368;2023-05-18T07:43:49;100997.94;;;14.70;50.68
15678;BME280;7939;50.814;6.368;2023-05-18T07:46:16;100993.66;;;14.67;50.26
15678;BME280;7939;50.814;6.368;2023-05-18T07:48:43;100997.94;;;14.68;50.60
15678;BME280;7939;50.814;6.368;2023-05-18T07:51:10;100998.81;;;14.69;50.92
15678;BME280;7939;50.814;6.368;2023-05-18T07:53:37;100997.97;;;14.71;50.72
15678;BME280;7939;50.814;6.368;2023-05-18T07:56:05;100997.09;;;14.69;49.91
15678;BME280;7939;50.814;6.368;2023-05-18T07:58:33;100993.66;;;14.70;49.78
15678;BME280;7939;50.814;6.368;2023-05-18T08:01:00;100997.13;;;14.74;50.40
15678;BME280;7939;50.814;6.368;2023-05-18T08:03:27;101001.41;;;14.78;50.65
15678;BME280;7939;50.814;6.368;2023-05-18T08:05:54;100998.00;;;14.79;49.87
15678;BME280;7939;50.814;6.368;2023-05-18T08:08:20;100997.16;;;14.84;50.30
15678;BME280;7939;50.814;6.368;2023-05-18T08:10:47;100998.88;;;14.90;50.26
15678;BME280;7939;50.814;6.368;2023-05-18T08:13:14;100997.16;;;14.91;49.69
15678;BME280;7939;50.814;6.368;2023-05-18T08:15:40;100990.28;;;14.94;50.37
15678;BME280;7939;50.814;6.368;2023-05-18T08:18:08;100986.88;;;14.98;49.81
15678;BME280;7939;50.814;6.368;2023-05-18T08:20:35;100990.28;;;14.96;49.66
15678;BME280;7939;50.814;6.368;2023-05-18T08:23:01;100981.72;;;15.00;49.90
15678;BME280;7939;50.814;6.368;2023-05-18T08:25:28;100987.72;;;15.06;49.24
15678;BME280;7939;50.814;6.368;2023-05-18T08:27:55;100985.16;;;15.09;49.48
15678;BME280;7939;50.814;6.368;2023-05-18T08:30:21;100983.44;;;15.13;48.80
15678;BME280;7939;50.814;6.368;2023-05-18T08:32:49;100983.44;;;15.19;49.86
15678;BME280;7939;50.814;6.368;2023-05-18T08:35:17;100986.00;;;15.21;49.04
15678;BME280;7939;50.814;6.368;2023-05-18T08:37:44;100977.44;;;15.19;49.40
15678;BME280;7939;50.814;6.368;2023-05-18T08:40:11;100982.59;;;15.22;48.51
15678;BME280;7939;50.814;6.368;2023-05-18T08:42:42;100980.00;;;15.25;47.69
15678;BME280;7939;50.814;6.368;2023-05-18T08:45:11;100976.56;;;15.32;46.84
15678;BME280;7939;50.814;6.368;2023-05-18T08:47:39;100979.16;;;15.30;46.82
15678;BME280;7939;50.814;6.368;2023-05-18T08:50:07;100980.03;;;15.28;46.95
15678;BME280;7939;50.814;6.368;2023-05-18T08:52:43;100978.28;;;15.27;46.17
15678;BME280;7939;50.814;6.368;2023-05-18T08:55:13;100986.00;;;15.33;45.15
15678;BME280;7939;50.814;6.368;2023-05-18T08:57:42;100986.91;;;15.35;45.42
15678;BME280;7939;50.814;6.368;2023-05-18T09:00:14;100992.91;;;15.35;45.64
15678;BME280;7939;50.814;6.368;2023-05-18T09:02:41;100988.59;;;15.42;45.03
15678;BME280;7939;50.814;6.368;2023-05-18T09:05:09;100985.16;;;15.48;45.47
15678;BME280;7939;50.814;6.368;2023-05-18T09:07:39;100986.00;;;15.50;45.37
15678;BME280;7939;50.814;6.368;2023-05-18T09:10:09;100980.00;;;15.54;45.15
15678;BME280;7939;50.814;6.368;2023-05-18T09:12:36;100979.13;;;15.58;45.47
15678;BME280;7939;50.814;6.368;2023-05-18T09:15:05;100985.16;;;15.57;45.26
15678;BME280;7939;50.814;6.368;2023-05-18T09:17:32;100973.16;;;15.65;45.03
15678;BME280;7939;50.814;6.368;2023-05-18T09:19:58;100974.00;;;15.69;43.97
15678;BME280;7939;50.814;6.368;2023-05-18T09:22:25;100974.00;;;15.73;44.93
15678;BME280;7939;50.814;6.368;2023-05-18T09:24:54;100973.13;;;15.76;44.29
15678;BME280;7939;50.814;6.368;2023-05-18T09:27:21;100968.84;;;15.75;43.85
15678;BME280;7939;50.814;6.368;2023-05-18T09:29:52;100975.69;;;15.80;44.28
15678;BME280;7939;50.814;6.368;2023-05-18T09:32:20;100972.28;;;15.80;44.99
15678;BME280;7939;50.814;6.368;2023-05-18T09:34:47;100970.53;;;15.85;44.65
15678;BME280;7939;50.814;6.368;2023-05-18T09:37:15;100971.38;;;15.87;44.28
15678;BME280;7939;50.814;6.368;2023-05-18T09:39:42;100967.94;;;15.94;44.38
15678;BME280;7939;50.814;6.368;2023-05-18T09:42:10;100969.66;;;15.98;44.61
15678;BME280;7939;50.814;6.368;2023-05-18T09:44:37;100974.78;;;16.00;44.49
15678;BME280;7939;50.814;6.368;2023-05-18T09:47:07;100974.78;;;16.04;44.50
15678;BME280;7939;50.814;6.368;2023-05-18T09:49:34;100972.19;;;16.04;44.38
15678;BME280;7939;50.814;6.368;2023-05-18T09:52:02;100963.56;;;16.11;43.99
15678;BME280;7939;50.814;6.368;2023-05-18T09:54:34;100969.56;;;16.13;43.90
15678;BME280;7939;50.814;6.368;2023-05-18T09:57:02;100963.53;;;16.19;44.10
15678;BME280;7939;50.814;6.368;2023-05-18T09:59:30;100960.09;;;16.22;43.96
15678;BME280;7939;50.814;6.368;2023-05-18T10:01:59;100962.66;;;16.25;44.01
15678;BME280;7939;50.814;6.368;2023-05-18T10:04:37;100960.06;;;16.29;43.23
15678;BME280;7939;50.814;6.368;2023-05-18T10:07:14;100953.19;;;16.34;43.37
15678;BME280;7939;50.814;6.368;2023-05-18T10:09:43;100953.13;;;16.39;43.90
15678;BME280;7939;50.814;6.368;2023-05-18T10:12:11;100954.00;;;16.38;44.01
15678;BME280;7939;50.814;6.368;2023-05-18T10:14:41;100951.38;;;16.44;44.01
15678;BME280;7939;50.814;6.368;2023-05-18T10:17:10;100947.88;;;16.53;44.08
15678;BME280;7939;50.814;6.368;2023-05-18T10:19:39;100943.59;;;16.55;44.24
15678;BME280;7939;50.814;6.368;2023-05-18T10:22:07;100952.16;;;16.58;44.17
15678;BME280;7939;50.814;6.368;2023-05-18T10:24:37;100945.28;;;16.59;44.20
15678;BME280;7939;50.814;6.368;2023-05-18T10:27:08;100938.41;;;16.58;43.76
15678;BME280;7939;50.814;6.368;2023-05-18T10:29:35;100944.41;;;16.61;43.53
15678;BME280;7939;50.814;6.368;2023-05-18T10:32:04;100937.53;;;16.62;42.91
15678;BME280;7939;50.814;6.368;2023-05-18T10:34:31;100934.91;;;16.68;43.14
15678;BME280;7939;50.814;6.368;2023-05-18T10:37:00;100945.22;;;16.68;43.52
15678;BME280;7939;50.814;6.368;2023-05-18T10:39:29;100935.75;;;16.71;42.48
15678;BME280;7939;50.814;6.368;2023-05-18T10:41:59;100935.78;;;16.73;43.06
15678;BME280;7939;50.814;6.368;2023-05-18T10:44:28;100938.28;;;16.82;43.18
15678;BME280;7939;50.814;6.368;2023-05-18T10:46:56;100939.16;;;16.81;42.83
15678;BME280;7939;50.814;6.368;2023-05-18T10:49:24;100933.13;;;16.82;42.12
15678;BME280;7939;50.814;6.368;2023-05-18T10:51:52;100928.75;;;16.89;41.80
15678;BME280;7939;50.814;6.368;2023-05-18T10:54:20;100930.47;;;16.93;42.24
15678;BME280;7939;50.814;6.368;2023-05-18T10:56:50;100936.50;;;16.92;41.75
15678;BME280;7939;50.814;6.368;2023-05-18T10:59:17;100923.53;;;16.96;41.54
15678;BME280;7939;50.814;6.368;2023-05-18T11:01:46;100931.25;;;17.01;42.04
15678;BME280;7939;50.814;6.368;2023-05-18T11:04:13;100926.09;;;17.01;42.40
15678;BME280;7939;50.814;6.368;2023-05-18T11:06:41;100920.03;;;17.05;42.16
15678;BME280;7939;50.814;6.368;2023-05-18T11:09:21;100920.00;;;17.08;41.93
15678;BME280;7939;50.814;6.368;2023-05-18T11:11:52;100910.47;;;17.16;42.45
15678;BME280;7939;50.814;6.368;2023-05-18T11:14:27;100913.91;;;17.15;42.08
15678;BME280;7939;50.814;6.368;2023-05-18T11:17:14;100906.13;;;17.23;41.61
15678;BME280;7939;50.814;6.368;2023-05-18T11:20:15;100903.53;;;17.21;41.35
15678;BME280;7939;50.814;6.368;2023-05-18T11:22:49;100902.59;;;17.27;41.61
15678;BME280;7939;50.814;6.368;2023-05-18T11:25:35;100894.88;;;17.29;41.55
15678;BME280;7939;50.814;6.368;2023-05-18T11:28:04;100901.69;;;17.36;42.13
15678;BME280;7939;50.814;6.368;2023-05-18T11:30:44;100900.88;;;17.27;41.58
15678;BME280;7939;50.814;6.368;2023-05-18T11:33:13;100901.69;;;17.36;41.75
15678;BME280;7939;50.814;6.368;2023-05-18T11:35:57;100899.88;;;17.41;41.42
15678;BME280;7939;50.814;6.368;2023-05-18T11:38:46;100895.53;;;17.46;40.93
15678;BME280;7939;50.814;6.368;2023-05-18T11:41:33;100895.59;;;17.43;41.01
15678;BME280;7939;50.814;6.368;2023-05-18T11:44:14;100892.06;;;17.47;40.46
15678;BME280;7939;50.814;6.368;2023-05-18T11:46:50;100903.28;;;17.46;41.33
15678;BME280;7939;50.814;6.368;2023-05-18T11:49:19;100895.50;;;17.50;40.95
15678;BME280;7939;50.814;6.368;2023-05-18T11:52:03;100895.44;;;17.53;40.60
15678;BME280;7939;50.814;6.368;2023-05-18T11:54:50;100891.16;;;17.54;40.61
15678;BME280;7939;50.814;6.368;2023-05-18T11:57:21;100891.94;;;17.59;40.86
15678;BME280;7939;50.814;6.368;2023-05-18T11:59:54;100877.22;;;17.66;40.77
15678;BME280;7939;50.814;6.368;2023-05-18T12:02:23;100877.28;;;17.63;40.58
15678;BME280;7939;50.814;6.368;2023-05-18T12:04:51;100883.28;;;17.66;40.84
15678;BME280;7939;50.814;6.368;2023-05-18T12:07:19;100874.69;;;17.63;40.23
15678;BME280;7939;50.814;6.368;2023-05-18T12:09:46;100872.03;;;17.66;41.09
15678;BME280;7939;50.814;6.368;2023-05-18T12:12:15;100873.72;;;17.70;39.98
15678;BME280;7939;50.814;6.368;2023-05-18T12:14:46;100872.88;;;17.74;40.46
15678;BME280;7939;50.814;6.368;2023-05-18T12:17:14;100865.09;;;17.75;39.92
15678;BME280;7939;50.814;6.368;2023-05-18T12:19:42;100860.81;;;17.71;40.04
15678;BME280;7939;50.814;6.368;2023-05-18T12:22:09;100858.28;;;17.65;40.80
15678;BME280;7939;50.814;6.368;2023-05-18T12:24:37;100861.72;;;17.67;40.54
15678;BME280;7939;50.814;6.368;2023-05-18T12:27:05;100856.50;;;17.73;40.71
15678;BME280;7939;50.814;6.368;2023-05-18T12:29:36;100866.84;;;17.72;40.60
15678;BME280;7939;50.814;6.368;2023-05-18T12:32:08;100861.66;;;17.75;40.62
15678;BME280;7939;50.814;6.368;2023-05-18T12:34:36;100863.41;;;17.73;40.65
15678;BME280;7939;50.814;6.368;2023-05-18T12:37:04;100850.41;;;17.77;40.91
15678;BME280;7939;50.814;6.368;2023-05-18T12:39:30;100851.28;;;17.76;40.84
15678;BME280;7939;50.814;6.368;2023-05-18T12:42:11;100849.56;;;17.75;40.68
15678;BME280;7939;50.814;6.368;2023-05-18T12:44:40;100847.00;;;17.75;41.41
15678;BME280;7939;50.814;6.368;2023-05-18T12:47:09;100850.44;;;17.76;41.58
15678;BME280;7939;50.814;6.368;2023-05-18T12:49:36;100856.50;;;17.70;41.39
15678;BME280;7939;50.814;6.368;2023-05-18T12:52:11;100858.22;;;17.71;41.05
15678;BME280;7939;50.814;6.368;2023-05-18T12:54:51;100847.00;;;17.75;40.52
15678;BME280;7939;50.814;6.368;2023-05-18T12:57:24;100850.47;;;17.71;39.99
15678;BME280;7939;50.814;6.368;2023-05-18T12:59:53;100848.72;;;17.70;41.06
15678;BME280;7939;50.814;6.368;2023-05-18T13:02:31;100849.56;;;17.75;41.58
15678;BME280;7939;50.814;6.368;2023-05-18T13:05:02;100840.91;;;17.78;40.75
15678;BME280;7939;50.814;6.368;2023-05-18T13:07:29;100844.44;;;17.74;40.67